Hauptseite
METAR-TAF:

METAR-TAF

Flughäfen :

Flughafen Larnaka

Larnaka, Zypern

Breite: 34-53N, Länge: 033-38E, Höhe: 2 m

Beobachtung

Neuester Wetterbericht von vor 17 Minuten, um 11:00 UTC
Wind 6 kt aus Ost/Nordost, variierte zwischen Nordost und Ost
Temperatur 18°C
Luftfeuchtigkeit 59%
Luftdruck 1017 hPa
Sichtweite 10 km oder mehr
Leicht bewölkt in der Höhe von 3000 ft

METAR: LCLK 221100Z 07006KT 040V100 9999 FEW030 18/10 Q1017 NOSIG

Zeit: 13:17 (11:17 UTC)

Prognose

Neuester Wetterbericht von vor 5 Stunden und 47 Minuten, um 05:30 UTC
Gültige Prognose vom 22 um 06 UTC bis 23 um 06 UTC
Wind 8 kt aus Nord
Sichtweite 10 km oder mehr
Leicht bewölkt in der Höhe von 3000 ft
Übergehend zu
vom 22 um 07 UTC bis 22 um 10 UTC
Wind 10 kt aus Ost/Nordost
Übergehend zu
vom 22 um 17 UTC bis 22 um 20 UTC
Wind 7 kt aus Nord

TAF: LCLK 220530Z 2206/2306 35008KT 9999 FEW030 BECMG 2207/2210 07010KT BECMG 2217/2220 35007KT

Wetterbeobachtungen und Prognosen von mehr als 4000 Flughäfen (METAR und TAF Bericht).

Die verfügbaren Stationen werden durch gelbe und rote Markierungen auf der Karte dargestellt.

Führen Sie die Maus auf sie, um den Namen der Station zu sehen.

Darauf klicken, um die Beobachtung von Wetterbeobachtungen und Prognosen zu sehen.

Um die Karte zu ändern : klicken Sie auf den grünen Tasten mit einem schwarzen Kreuz Zum Vergrößern, auf den grünen Button mit einem Gedankenstrich zu verkleinern, oder auf die grünen Pfeile für benachbarte Karten.


METAR-TAF: